Time;durP1;ratioP1;P1;durP2;ratioP2;P2;SDS_P1;SDS_P2;PMS_P1;PMS_P2;Temp;Humidity;BMP_temperature;BMP_pressure;BME280_temperature;BME280_humidity;BME280_pressure;Samples;Min_cycle;Max_cycle;Signal;HPM_P1;HPM_P2
2022/01/16 00:04:07;;;;;;;41.20;21.77;;;0.60;99.90;;;;;;4934554;29;20424;-75
2022/01/16 00:06:33;;;;;;;43.33;20.33;;;0.60;99.90;;;;;;4934346;29;20208;-75
2022/01/16 00:08:59;;;;;;;39.17;19.47;;;0.60;99.90;;;;;;4934343;29;20419;-75
2022/01/16 00:11:25;;;;;;;42.73;20.53;;;0.60;99.90;;;;;;4934211;29;20489;-75
2022/01/16 00:13:51;;;;;;;49.13;20.67;;;0.60;99.90;;;;;;4934074;29;20177;-75
2022/01/16 00:16:17;;;;;;;45.63;21.37;;;0.70;99.90;;;;;;4938468;29;21350;-74
2022/01/16 00:18:49;;;;;;;40.87;19.13;;;0.70;99.90;;;;;;4952094;29;20507;-74
2022/01/16 00:21:35;;;;;;;41.80;20.47;;;0.70;99.90;;;;;;4953165;28;20431;-74
2022/01/16 00:24:01;;;;;;;43.07;19.77;;;0.70;99.90;;;;;;4953197;28;20427;-75
2022/01/16 00:26:27;;;;;;;38.40;18.60;;;0.80;99.90;;;;;;4953195;28;20435;-74
2022/01/16 00:28:53;;;;;;;44.70;19.60;;;0.80;99.90;;;;;;4953442;28;20416;-75
2022/01/16 00:31:21;;;;;;;45.40;20.30;;;0.80;99.90;;;;;;4951688;29;20218;-75
2022/01/16 00:33:47;;;;;;;48.73;20.93;;;0.80;99.90;;;;;;4953216;28;20964;-75
2022/01/16 00:36:18;;;;;;;45.00;21.53;;;0.90;99.90;;;;;;4953221;28;20421;-75
2022/01/16 00:38:45;;;;;;;40.20;21.73;;;0.80;99.90;;;;;;4953173;28;20401;-74
2022/01/16 00:41:12;;;;;;;38.77;20.87;;;0.80;99.90;;;;;;4953066;28;20415;-75
2022/01/16 00:43:38;;;;;;;51.30;22.27;;;0.80;99.90;;;;;;4953045;28;20461;-75
2022/01/16 00:46:03;;;;;;;44.00;21.20;;;0.70;99.90;;;;;;4953040;28;20439;-75
2022/01/16 00:48:29;;;;;;;43.83;20.83;;;0.70;99.90;;;;;;4951814;29;20223;-76
2022/01/16 00:50:55;;;;;;;42.03;19.83;;;0.70;99.90;;;;;;4952749;28;20201;-74
2022/01/16 00:53:20;;;;;;;46.90;21.53;;;0.70;99.90;;;;;;4951567;29;20177;-75
2022/01/16 00:55:46;;;;;;;47.07;21.03;;;0.70;99.90;;;;;;4952867;28;20553;-75
2022/01/16 00:58:12;;;;;;;54.23;20.80;;;0.70;99.90;;;;;;4952592;28;20187;-76
2022/01/16 05:32:29;;;;;;;36.77;18.67;;;-0.20;99.90;;;;;;5133468;23;20507;-74
2022/01/16 05:34:54;;;;;;;32.57;19.10;;;-0.30;99.90;;;;;;4945306;29;20407;-76
2022/01/16 05:37:20;;;;;;;39.63;19.40;;;-0.30;99.90;;;;;;4954507;28;20181;-76
2022/01/16 05:39:47;;;;;;;37.30;18.47;;;-0.30;99.90;;;;;;4954305;28;20192;-76
2022/01/16 05:42:13;;;;;;;37.57;19.67;;;-0.30;99.90;;;;;;4950800;28;20733;-76
2022/01/16 05:44:39;;;;;;;39.03;19.70;;;-0.40;99.90;;;;;;4948336;28;20387;-76
2022/01/16 05:47:05;;;;;;;33.27;18.27;;;-0.40;99.90;;;;;;4955213;28;20958;-76
2022/01/16 05:49:31;;;;;;;30.40;17.27;;;-0.30;99.90;;;;;;4955958;28;20768;-76
2022/01/16 05:51:56;;;;;;;27.73;16.43;;;-0.30;99.90;;;;;;4955863;28;20436;-76
2022/01/16 05:54:23;;;;;;;40.77;19.63;;;-0.30;99.90;;;;;;4955626;28;20677;-76
2022/01/16 05:56:49;;;;;;;33.37;17.50;;;-0.30;99.90;;;;;;4955839;28;20184;-76
2022/01/16 05:59:15;;;;;;;35.43;18.33;;;-0.50;99.90;;;;;;4955587;28;20424;-77
2022/01/16 06:01:40;;;;;;;31.30;18.37;;;-0.50;99.90;;;;;;4955143;28;20198;-78
2022/01/16 06:04:05;;;;;;;34.73;19.80;;;-0.60;99.90;;;;;;4955330;28;20188;-75
2022/01/16 06:06:31;;;;;;;34.73;18.50;;;-0.60;99.90;;;;;;4955457;28;20208;-77
2022/01/16 06:08:56;;;;;;;34.30;18.63;;;-0.60;99.90;;;;;;4955337;28;20216;-78
2022/01/16 06:11:22;;;;;;;33.50;16.83;;;-0.60;99.90;;;;;;4955373;28;20200;-76
2022/01/16 06:13:47;;;;;;;32.33;18.00;;;-0.50;99.90;;;;;;4955010;28;20552;-77
2022/01/16 06:16:13;;;;;;;34.23;18.20;;;-0.60;99.90;;;;;;4955365;28;20527;-77
2022/01/16 06:18:39;;;;;;;37.23;18.47;;;-0.60;99.90;;;;;;4955404;28;20180;-77
2022/01/16 06:21:04;;;;;;;31.73;18.30;;;-0.60;99.90;;;;;;4954803;28;20204;-77
2022/01/16 06:23:30;;;;;;;33.53;17.23;;;-0.60;99.90;;;;;;4955050;28;20311;-77
2022/01/16 06:25:56;;;;;;;33.30;17.80;;;-0.50;99.90;;;;;;4954904;28;20207;-76
2022/01/16 06:28:27;;;;;;;34.67;19.87;;;-0.50;99.90;;;;;;4955108;28;20172;-77
2022/01/16 06:30:52;;;;;;;33.43;19.27;;;-0.50;99.90;;;;;;4954576;28;20200;-77
2022/01/16 06:33:19;;;;;;;29.10;16.83;;;-0.50;99.90;;;;;;4954941;28;20415;-77
2022/01/16 06:35:45;;;;;;;31.90;17.57;;;-0.40;99.90;;;;;;4954903;28;20208;-76
2022/01/16 06:38:10;;;;;;;35.83;19.70;;;-0.40;99.90;;;;;;4954969;28;20987;-77
2022/01/16 06:40:36;;;;;;;39.13;20.10;;;-0.30;99.90;;;;;;4954722;28;20545;-77
2022/01/16 06:43:01;;;;;;;43.10;23.20;;;-0.40;99.90;;;;;;4954416;28;20209;-77
2022/01/16 06:45:28;;;;;;;43.30;21.93;;;-0.60;99.90;;;;;;4954894;28;20220;-77
2022/01/16 06:47:54;;;;;;;47.93;22.23;;;-0.60;99.90;;;;;;4955280;28;20168;-76
2022/01/16 06:50:20;;;;;;;41.47;20.10;;;-0.60;99.90;;;;;;4954865;28;20454;-76
2022/01/16 06:52:45;;;;;;;35.00;18.90;;;-0.60;99.90;;;;;;4954514;28;20418;-77
2022/01/16 06:55:11;;;;;;;38.27;19.10;;;-0.50;99.90;;;;;;4954709;28;20273;-76
2022/01/16 06:57:37;;;;;;;42.40;21.80;;;-0.60;99.90;;;;;;4953933;28;20185;-76
2022/01/16 07:00:07;;;;;;;41.63;21.43;;;-0.60;99.90;;;;;;4954253;28;20181;-77
2022/01/16 07:02:33;;;;;;;37.07;19.00;;;-0.60;99.90;;;;;;4954502;28;20203;-76
2022/01/16 07:04:58;;;;;;;35.60;18.20;;;-0.80;99.90;;;;;;4954187;28;20430;-76
2022/01/16 07:07:24;;;;;;;30.80;17.03;;;-0.80;99.90;;;;;;4954447;28;20208;-76
2022/01/16 07:09:49;;;;;;;37.97;19.53;;;-0.70;99.90;;;;;;4954164;28;20646;-77
2022/01/16 07:12:15;;;;;;;33.70;19.40;;;-0.70;99.90;;;;;;4954015;28;20585;-75
2022/01/16 07:14:42;;;;;;;32.70;19.33;;;-0.70;99.90;;;;;;4953977;28;20752;-75
2022/01/16 07:17:08;;;;;;;40.90;20.10;;;-0.60;99.90;;;;;;4954212;28;20719;-76
2022/01/16 07:19:34;;;;;;;38.63;19.10;;;-0.60;99.90;;;;;;4954163;28;20483;-76
2022/01/16 07:22:00;;;;;;;36.07;20.60;;;-0.60;99.90;;;;;;4953969;28;20574;-76
2022/01/16 07:24:25;;;;;;;39.87;20.87;;;-0.50;99.90;;;;;;4953916;28;20523;-76
2022/01/16 07:26:51;;;;;;;40.27;19.33;;;-0.40;99.90;;;;;;4953924;28;20518;-75
2022/01/16 07:29:16;;;;;;;31.40;17.50;;;-0.40;99.90;;;;;;4954009;28;20694;-75
2022/01/16 07:31:42;;;;;;;35.10;18.13;;;-0.40;99.90;;;;;;4941220;28;20219;-76
2022/01/16 07:34:08;;;;;;;33.03;19.07;;;-0.40;99.90;;;;;;4933886;28;20303;-75
2022/01/16 07:36:33;;;;;;;37.37;19.50;;;-0.30;99.90;;;;;;4939300;29;20302;-75
2022/01/16 07:38:59;;;;;;;40.67;21.30;;;-0.40;99.90;;;;;;4940582;28;20427;-75
2022/01/16 07:41:25;;;;;;;30.27;17.17;;;-0.40;99.90;;;;;;4934345;29;20204;-75
2022/01/16 07:43:50;;;;;;;37.37;19.70;;;-0.40;99.90;;;;;;4934517;29;20615;-76
2022/01/16 07:46:19;;;;;;;32.67;18.67;;;-0.30;99.90;;;;;;4934392;29;20640;-77
2022/01/16 07:48:45;;;;;;;33.33;18.93;;;-0.30;99.90;;;;;;4934614;29;20718;-75
2022/01/16 07:51:10;;;;;;;31.93;18.17;;;-0.30;99.90;;;;;;4934292;29;20521;-76
2022/01/16 07:53:37;;;;;;;31.27;16.83;;;-0.20;99.90;;;;;;4941287;29;20193;-76
2022/01/16 07:56:03;;;;;;;34.87;20.33;;;-0.10;99.90;;;;;;4941894;29;20181;-76
2022/01/16 07:58:29;;;;;;;36.93;21.07;;;-0.10;99.90;;;;;;4942594;29;20868;-76
2022/01/16 08:00:56;;;;;;;37.77;19.77;;;-0.10;99.90;;;;;;4943282;29;20449;-76
2022/01/16 08:03:22;;;;;;;31.27;18.63;;;0.10;99.90;;;;;;4941853;29;20399;-76
2022/01/16 08:05:47;;;;;;;37.17;19.90;;;0.10;99.90;;;;;;4941584;28;21044;-76
2022/01/16 08:08:13;;;;;;;30.57;18.27;;;0.10;99.90;;;;;;4941659;29;20760;-75
2022/01/16 08:10:40;;;;;;;38.53;18.70;;;0.10;99.90;;;;;;4941485;29;20617;-76
2022/01/16 08:13:05;;;;;;;40.90;19.07;;;0.20;99.90;;;;;;4942288;29;20255;-76
2022/01/16 08:15:31;;;;;;;29.43;18.23;;;0.20;99.90;;;;;;4942832;29;20424;-75
2022/01/16 08:17:56;;;;;;;30.93;19.27;;;0.20;99.90;;;;;;4940354;29;20664;-75
2022/01/16 08:20:22;;;;;;;32.10;18.30;;;0.20;99.90;;;;;;4945574;29;20209;-76
2022/01/16 08:22:47;;;;;;;34.73;19.53;;;0.20;99.90;;;;;;4943388;29;20223;-75
2022/01/16 08:25:13;;;;;;;33.13;19.17;;;0.20;99.90;;;;;;4943076;29;20173;-75
2022/01/16 08:27:39;;;;;;;35.40;20.50;;;0.20;99.90;;;;;;4943452;29;20235;-76
2022/01/16 08:30:06;;;;;;;40.07;21.20;;;0.10;99.90;;;;;;4952974;28;20260;-75
2022/01/16 08:32:32;;;;;;;31.80;17.50;;;0.10;99.90;;;;;;4953358;29;20213;-76
2022/01/16 08:34:57;;;;;;;36.43;17.53;;;0.20;99.90;;;;;;4952443;29;20426;-76
2022/01/16 08:37:23;;;;;;;39.53;23.10;;;0.10;99.90;;;;;;4953376;29;20173;-76
2022/01/16 08:39:48;;;;;;;39.07;20.67;;;0.20;99.90;;;;;;4952985;29;20185;-74
2022/01/16 08:42:15;;;;;;;38.60;20.30;;;0.20;99.90;;;;;;4950129;29;20200;-75
2022/01/16 08:44:42;;;;;;;31.10;18.30;;;0.30;99.90;;;;;;4933203;28;20285;-74
2022/01/16 08:47:08;;;;;;;32.87;20.17;;;0.30;99.90;;;;;;4932862;29;20539;-75
2022/01/16 08:49:34;;;;;;;41.37;20.27;;;0.30;99.90;;;;;;4932878;28;20967;-75
2022/01/16 08:52:00;;;;;;;39.90;21.07;;;0.30;99.90;;;;;;4933151;29;20250;-75
2022/01/16 08:54:25;;;;;;;32.57;18.37;;;0.20;99.90;;;;;;4931936;28;20873;-75
2022/01/16 08:56:51;;;;;;;37.73;20.40;;;0.20;99.90;;;;;;4933376;29;20726;-75
2022/01/16 08:59:16;;;;;;;34.57;19.73;;;0.30;99.90;;;;;;4933181;28;20221;-75
2022/01/16 09:01:42;;;;;;;33.20;21.57;;;0.30;99.90;;;;;;4933457;29;20233;-74
2022/01/16 09:04:07;;;;;;;35.47;19.43;;;0.40;99.90;;;;;;4933559;29;20644;-75
2022/01/16 09:06:33;;;;;;;33.43;19.80;;;0.50;99.90;;;;;;4933685;28;20595;-76
2022/01/16 09:08:59;;;;;;;36.63;21.10;;;0.50;99.90;;;;;;4933864;29;20292;-74
2022/01/16 09:11:25;;;;;;;34.43;19.70;;;0.50;99.90;;;;;;4933593;28;20703;-75
2022/01/16 09:13:52;;;;;;;32.27;20.23;;;0.50;99.90;;;;;;4933572;29;20484;-74
2022/01/16 09:16:19;;;;;;;30.30;18.83;;;0.50;99.90;;;;;;4933642;28;20497;-74
2022/01/16 09:18:45;;;;;;;38.50;21.57;;;0.60;99.90;;;;;;4933792;29;20477;-75
2022/01/16 09:21:11;;;;;;;35.00;19.20;;;0.60;99.90;;;;;;4935937;28;20805;-74
2022/01/16 09:23:38;;;;;;;27.50;18.60;;;0.50;99.90;;;;;;4936719;29;20445;-74
2022/01/16 09:26:03;;;;;;;30.10;17.47;;;0.60;99.90;;;;;;4937191;28;20233;-74
2022/01/16 09:28:29;;;;;;;26.53;16.97;;;0.70;99.90;;;;;;4936866;29;20445;-74
2022/01/16 09:30:54;;;;;;;23.50;15.73;;;0.60;99.90;;;;;;4936140;28;20594;-74
2022/01/16 09:33:20;;;;;;;28.27;17.97;;;0.70;99.90;;;;;;4935443;29;20279;-74
2022/01/16 09:35:45;;;;;;;31.20;17.00;;;0.70;99.90;;;;;;4936611;28;20245;-75
2022/01/16 09:38:11;;;;;;;27.50;16.60;;;0.70;99.90;;;;;;4936560;29;20257;-75
2022/01/16 09:40:37;;;;;;;26.97;17.60;;;0.80;99.90;;;;;;4936244;28;20800;-75
2022/01/16 09:43:03;;;;;;;33.13;19.67;;;0.80;99.90;;;;;;4936255;29;20704;-75
2022/01/16 09:45:30;;;;;;;30.00;18.83;;;0.90;99.90;;;;;;4936397;28;20219;-75
2022/01/16 09:47:56;;;;;;;23.17;15.80;;;1.00;99.90;;;;;;4936684;29;20990;-75
2022/01/16 09:50:24;;;;;;;31.57;19.70;;;1.10;99.90;;;;;;4936280;28;20464;-75
2022/01/16 09:52:51;;;;;;;27.63;19.53;;;1.00;99.90;;;;;;4936143;29;20197;-75
2022/01/16 09:55:18;;;;;;;35.03;20.67;;;1.00;99.90;;;;;;4936289;28;20457;-75
2022/01/16 09:57:44;;;;;;;36.20;17.70;;;1.00;99.90;;;;;;4936311;29;20863;-74
2022/01/16 10:00:15;;;;;;;29.00;18.53;;;1.10;99.90;;;;;;4935813;28;20482;-74
2022/01/16 10:02:41;;;;;;;29.73;20.00;;;1.20;99.90;;;;;;4936208;29;20400;-72
2022/01/16 10:05:36;;;;;;;36.63;21.10;;;1.30;99.90;;;;;;4935602;28;20462;-72
2022/01/16 10:08:06;;;;;;;29.67;19.00;;;1.20;99.90;;;;;;4936079;29;20206;-75
2022/01/16 10:10:34;;;;;;;30.43;18.73;;;1.20;99.90;;;;;;4935887;28;20536;-71
2022/01/16 10:13:17;;;;;;;27.20;16.90;;;1.20;99.90;;;;;;4935554;29;20454;-73
2022/01/16 10:15:57;;;;;;;34.40;18.70;;;1.30;99.90;;;;;;4935761;28;20492;-73
2022/01/16 10:18:35;;;;;;;30.53;17.97;;;1.20;99.90;;;;;;4935770;29;20452;-73
2022/01/16 10:21:00;;;;;;;25.23;16.63;;;1.20;99.90;;;;;;4935370;28;21032;-73
2022/01/16 10:23:26;;;;;;;38.63;20.70;;;1.20;99.90;;;;;;4935970;29;20563;-75
2022/01/16 10:25:52;;;;;;;30.83;18.73;;;1.40;99.90;;;;;;4935528;28;20577;-75
2022/01/16 10:28:18;;;;;;;36.63;19.40;;;1.50;99.90;;;;;;4935584;29;20300;-73
2022/01/16 10:30:51;;;;;;;32.90;19.43;;;1.50;99.90;;;;;;4935208;28;20218;-74
2022/01/16 10:33:22;;;;;;;26.03;17.70;;;1.60;99.90;;;;;;4934714;29;20891;-73
2022/01/16 10:35:50;;;;;;;33.37;18.97;;;1.70;99.90;;;;;;4935493;28;20518;-74
2022/01/16 10:38:27;;;;;;;36.40;19.90;;;1.80;99.90;;;;;;4935440;29;20461;-74
2022/01/16 10:40:56;;;;;;;32.83;20.20;;;1.80;99.90;;;;;;4935068;28;20468;-74
2022/01/16 10:43:44;;;;;;;38.37;21.10;;;1.70;99.90;;;;;;4935302;29;20984;-74
2022/01/16 10:46:12;;;;;;;31.40;19.00;;;1.70;99.90;;;;;;4934971;28;20475;-74
2022/01/16 10:48:38;;;;;;;32.17;19.80;;;1.80;99.90;;;;;;4935476;29;20427;-74
2022/01/16 10:51:04;;;;;;;37.13;21.07;;;1.90;99.90;;;;;;4934559;28;20462;-74
2022/01/16 10:53:32;;;;;;;43.53;21.37;;;1.90;99.90;;;;;;4935008;29;20477;-72
2022/01/16 10:55:59;;;;;;;31.30;17.90;;;1.90;99.90;;;;;;4933529;28;20221;-74
2022/01/16 10:58:27;;;;;;;34.40;19.77;;;2.00;99.90;;;;;;4946118;29;20469;-73
2022/01/16 11:01:00;;;;;;;35.47;21.20;;;2.10;99.90;;;;;;4953674;28;20475;-74
2022/01/16 11:03:27;;;;;;;33.30;19.77;;;2.20;99.90;;;;;;4953050;28;20998;-74
2022/01/16 11:05:54;;;;;;;33.67;19.57;;;2.20;99.90;;;;;;4953729;28;20556;-75
2022/01/16 11:08:25;;;;;;;37.83;20.87;;;2.30;99.90;;;;;;4954101;28;20433;-74
2022/01/16 11:10:56;;;;;;;33.23;20.67;;;2.40;99.90;;;;;;4953653;28;20429;-73
2022/01/16 11:13:24;;;;;;;35.33;20.97;;;2.50;99.90;;;;;;4953913;28;20793;-74
2022/01/16 11:15:56;;;;;;;35.63;20.33;;;2.80;99.90;;;;;;4953774;28;20521;-73
2022/01/16 11:18:25;;;;;;;31.30;20.33;;;3.10;99.90;;;;;;4954047;28;20470;-74
2022/01/16 11:20:57;;;;;;;40.83;21.10;;;3.30;99.90;;;;;;4953278;28;20555;-74
2022/01/16 11:25:58;;;;;;;39.13;23.77;;;3.40;99.90;;;;;;4941558;29;20447;-74
2022/01/16 11:28:24;;;;;;;38.07;21.03;;;3.60;99.90;;;;;;4943936;29;20450;-74
2022/01/16 11:30:51;;;;;;;36.73;20.43;;;3.70;99.90;;;;;;4938579;28;20476;-73
2022/01/16 11:33:19;;;;;;;43.27;22.23;;;3.50;99.90;;;;;;4943026;29;20446;-74
2022/01/16 11:35:57;;;;;;;39.47;21.50;;;3.40;99.90;;;;;;4935188;28;20948;-73
2022/01/16 11:38:30;;;;;;;38.50;21.80;;;3.50;99.90;;;;;;4934461;29;20940;-74
2022/01/16 11:40:57;;;;;;;42.63;22.43;;;3.50;99.90;;;;;;4938796;28;20539;-73
2022/01/16 11:43:31;;;;;;;39.77;20.67;;;3.50;99.90;;;;;;4941319;28;20981;-73
2022/01/16 11:46:37;;;;;;;43.80;22.33;;;3.40;99.90;;;;;;4942722;28;20457;-74
2022/01/16 11:49:07;;;;;;;42.80;21.57;;;3.40;99.90;;;;;;4942226;29;20518;-74
2022/01/16 11:51:32;;;;;;;43.97;21.87;;;3.30;99.90;;;;;;4944196;28;20513;-74
2022/01/16 11:54:01;;;;;;;42.67;21.93;;;3.20;99.90;;;;;;4940671;29;20853;-74
2022/01/16 11:56:41;;;;;;;47.37;23.10;;;3.00;99.90;;;;;;4934288;28;20221;-73
2022/01/16 11:59:30;;;;;;;49.13;21.60;;;2.90;99.90;;;;;;4935215;29;20490;-74
2022/01/16 12:01:59;;;;;;;46.37;21.67;;;2.90;99.90;;;;;;4934934;28;20435;-74
2022/01/16 12:04:30;;;;;;;39.63;20.30;;;2.90;99.90;;;;;;4934254;29;20491;-74
2022/01/16 12:07:12;;;;;;;45.77;20.17;;;2.90;99.90;;;;;;4933940;28;20562;-74
2022/01/16 12:12:12;;;;;;;32.50;19.80;;;3.30;99.90;;;;;;4933373;28;20438;-75
2022/01/16 12:14:51;;;;;;;33.70;18.60;;;3.50;99.90;;;;;;4933920;29;20416;-76
2022/01/16 12:17:35;;;;;;;38.13;19.67;;;3.60;99.90;;;;;;4933782;28;20517;-74
2022/01/16 12:20:13;;;;;;;39.23;20.57;;;3.60;99.90;;;;;;4933626;29;20535;-74
2022/01/16 12:22:57;;;;;;;36.70;18.70;;;3.40;99.90;;;;;;4933921;28;20492;-75
2022/01/16 12:25:31;;;;;;;40.23;20.30;;;3.30;99.90;;;;;;4933940;29;20439;-74
2022/01/16 12:28:01;;;;;;;39.67;19.83;;;3.20;99.90;;;;;;4941681;29;20463;-74
2022/01/16 12:30:33;;;;;;;40.30;20.90;;;3.20;99.90;;;;;;4940298;28;20458;-74
2022/01/16 12:33:10;;;;;;;38.80;20.17;;;3.30;99.90;;;;;;4933612;29;20459;-74
2022/01/16 12:35:50;;;;;;;36.27;19.10;;;3.20;99.90;;;;;;4933589;29;20475;-73
2022/01/16 12:38:22;;;;;;;33.63;18.57;;;3.20;99.90;;;;;;4933643;29;20436;-74
2022/01/16 12:40:58;;;;;;;36.07;17.73;;;3.20;99.90;;;;;;4933394;29;20508;-74
2022/01/16 12:43:33;;;;;;;35.10;17.07;;;3.20;99.90;;;;;;4933510;29;20437;-73
2022/01/16 12:46:04;;;;;;;33.73;17.20;;;3.30;99.90;;;;;;4933283;29;20476;-73
2022/01/16 12:48:30;;;;;;;36.77;16.13;;;3.30;99.90;;;;;;4933719;29;20879;-74
2022/01/16 12:51:01;;;;;;;27.10;15.67;;;3.40;99.90;;;;;;4933785;29;20451;-74
2022/01/16 12:53:33;;;;;;;27.60;14.90;;;3.50;99.90;;;;;;4933806;29;20443;-74
2022/01/16 12:56:34;;;;;;;27.23;14.47;;;3.60;99.90;;;;;;4936275;29;20541;-74
2022/01/16 12:59:11;;;;;;;25.90;14.37;;;3.60;99.90;;;;;;4933527;29;20437;-73
2022/01/16 13:01:43;;;;;;;26.20;14.00;;;3.70;99.90;;;;;;4944668;29;20486;-74
2022/01/16 13:04:26;;;;;;;25.37;12.57;;;3.70;99.90;;;;;;4935389;29;20797;-75
2022/01/16 13:06:52;;;;;;;24.17;12.70;;;3.70;99.90;;;;;;4937299;29;20471;-76
2022/01/16 13:09:18;;;;;;;22.57;13.60;;;3.70;99.90;;;;;;4937721;29;20430;-76
2022/01/16 13:11:50;;;;;;;22.20;12.97;;;3.80;99.90;;;;;;4937418;29;20416;-72
2022/01/16 13:14:22;;;;;;;26.53;12.07;;;3.80;99.90;;;;;;4935873;29;20179;-73
2022/01/16 13:16:50;;;;;;;17.83;11.77;;;3.80;99.90;;;;;;4937265;29;20429;-75
2022/01/16 13:19:18;;;;;;;16.83;10.77;;;3.80;99.90;;;;;;4938660;29;20826;-73
2022/01/16 13:22:11;;;;;;;19.20;11.40;;;3.80;99.90;;;;;;4945758;28;20445;-72
2022/01/16 13:24:44;;;;;;;15.13;9.40;;;3.80;99.90;;;;;;4937010;29;20388;-75
2022/01/16 13:27:19;;;;;;;18.43;9.80;;;3.80;99.90;;;;;;4937032;29;20495;-74
2022/01/16 13:29:49;;;;;;;16.37;10.40;;;3.80;99.90;;;;;;4936962;29;20500;-73
2022/01/16 13:32:17;;;;;;;21.00;11.10;;;3.80;99.90;;;;;;4935420;29;20960;-73
2022/01/16 13:34:53;;;;;;;15.97;10.23;;;3.70;99.90;;;;;;4933969;29;20463;-75
2022/01/16 13:37:36;;;;;;;17.97;9.67;;;3.80;99.90;;;;;;4941679;29;20430;-75
2022/01/16 13:40:05;;;;;;;17.60;11.20;;;3.80;99.90;;;;;;4942646;29;20493;-75
2022/01/16 13:42:51;;;;;;;15.87;8.87;;;3.90;99.90;;;;;;4946678;29;20428;-73
2022/01/16 13:45:39;;;;;;;14.00;9.40;;;3.90;99.90;;;;;;4944174;29;20426;-72
2022/01/16 13:48:23;;;;;;;21.03;11.20;;;4.00;99.90;;;;;;4949426;29;20418;-74
2022/01/16 13:50:52;;;;;;;17.03;9.60;;;4.00;99.90;;;;;;4949604;28;20503;-74
2022/01/16 13:53:21;;;;;;;16.83;9.57;;;4.10;99.90;;;;;;4946307;29;20427;-73
2022/01/16 13:55:57;;;;;;;17.47;11.20;;;4.10;99.90;;;;;;4939857;28;20914;-74
2022/01/16 13:58:25;;;;;;;16.97;10.37;;;4.20;99.90;;;;;;4951797;29;20406;-74
2022/01/16 14:00:52;;;;;;;17.30;10.27;;;4.10;99.90;;;;;;4955234;28;20411;-75
2022/01/16 14:03:23;;;;;;;17.40;9.23;;;4.10;99.90;;;;;;4953023;28;20424;-73
2022/01/16 14:05:51;;;;;;;19.20;10.00;;;4.10;99.90;;;;;;4945259;28;20490;-73
2022/01/16 14:08:29;;;;;;;19.90;10.83;;;4.10;99.90;;;;;;4955571;28;20450;-73
2022/01/16 14:11:15;;;;;;;23.53;10.70;;;4.10;99.90;;;;;;4955227;28;20453;-73
2022/01/16 14:13:48;;;;;;;21.10;10.30;;;4.10;99.90;;;;;;4955124;28;20454;-72
2022/01/16 14:16:14;;;;;;;18.33;12.40;;;4.10;99.90;;;;;;4955367;28;20436;-74
2022/01/16 14:18:52;;;;;;;18.10;10.13;;;4.10;99.90;;;;;;4953990;29;20425;-73
2022/01/16 14:24:11;;;;;;;22.70;12.77;;;4.10;99.90;;;;;;4954903;28;20420;-72
2022/01/16 14:26:47;;;;;;;18.90;12.27;;;4.10;99.90;;;;;;4955268;28;20946;-72
2022/01/16 14:29:15;;;;;;;19.63;12.00;;;4.10;99.90;;;;;;4936086;28;20400;-74
2022/01/16 14:31:41;;;;;;;20.90;12.07;;;4.00;99.90;;;;;;4948269;29;20436;-75
2022/01/16 14:34:06;;;;;;;16.77;10.60;;;4.00;99.90;;;;;;4954282;28;20436;-74
2022/01/16 14:36:32;;;;;;;19.70;10.83;;;4.00;99.90;;;;;;4955024;28;20236;-72
2022/01/16 14:38:57;;;;;;;19.70;10.63;;;4.10;99.90;;;;;;4937572;28;20245;-74
2022/01/16 14:41:23;;;;;;;19.80;11.50;;;4.10;99.90;;;;;;4935116;29;20228;-71
2022/01/16 14:43:54;;;;;;;14.37;8.87;;;4.10;99.90;;;;;;4934993;28;20225;-74
2022/01/16 14:46:21;;;;;;;15.83;10.07;;;4.10;99.90;;;;;;4934181;29;20480;-71
2022/01/16 14:48:47;;;;;;;18.70;10.10;;;4.10;99.90;;;;;;4943031;28;20465;-73
2022/01/16 14:51:14;;;;;;;16.93;11.07;;;4.10;99.90;;;;;;4922536;29;20441;-73
2022/01/16 14:53:40;;;;;;;14.20;9.20;;;4.10;99.90;;;;;;4952266;28;20439;-74
2022/01/16 14:56:05;;;;;;;16.00;9.20;;;4.10;99.90;;;;;;4954192;28;20451;-73
2022/01/16 14:58:31;;;;;;;18.00;9.40;;;4.10;99.90;;;;;;4954154;28;20221;-73
2022/01/16 15:00:56;;;;;;;14.30;9.73;;;4.10;99.90;;;;;;4952751;28;20210;-74
2022/01/16 15:03:22;;;;;;;14.23;9.30;;;4.10;99.90;;;;;;4953705;28;20357;-73
2022/01/16 15:05:48;;;;;;;12.70;8.20;;;4.00;99.90;;;;;;4954079;28;20205;-73
2022/01/16 15:08:13;;;;;;;17.73;8.97;;;4.10;99.90;;;;;;4952243;28;20939;-73
2022/01/16 15:10:39;;;;;;;14.45;10.30;;;4.10;99.90;;;;;;4940380;29;20432;-74
2022/01/16 15:13:05;;;;;;;15.30;9.90;;;4.10;99.90;;;;;;4942811;29;20209;-73
2022/01/16 15:15:30;;;;;;;13.87;9.20;;;4.10;99.90;;;;;;4932280;29;20202;-73
2022/01/16 15:17:57;;;;;;;14.27;9.83;;;4.00;99.90;;;;;;4934397;29;20667;-74
2022/01/16 15:20:28;;;;;;;23.43;12.63;;;3.90;99.90;;;;;;4935019;28;20221;-74
2022/01/16 15:22:58;;;;;;;12.60;8.47;;;4.00;99.90;;;;;;4933219;29;20512;-74
2022/01/16 15:25:29;;;;;;;11.63;9.20;;;4.10;99.90;;;;;;4933388;28;20460;-74
2022/01/16 15:27:56;;;;;;;13.60;8.97;;;4.10;99.90;;;;;;4934652;29;20501;-74
2022/01/16 15:30:21;;;;;;;18.53;11.57;;;4.10;99.90;;;;;;4934183;28;20437;-73
2022/01/16 15:32:47;;;;;;;17.20;13.30;;;4.00;99.90;;;;;;4934084;29;20453;-74
2022/01/16 15:35:15;;;;;;;15.18;9.20;;;4.10;99.90;;;;;;4934273;28;20490;-75
2022/01/16 15:37:41;;;;;;;15.65;11.35;;;4.00;99.90;;;;;;4928651;29;20416;-74
2022/01/16 15:40:13;;;;;;;18.67;12.70;;;4.00;99.90;;;;;;4947293;28;20471;-75
2022/01/16 15:42:41;;;;;;;12.60;9.50;;;4.10;99.90;;;;;;4951705;28;20415;-75
2022/01/16 15:45:07;;;;;;;11.40;8.13;;;4.00;99.90;;;;;;4952443;28;20427;-74
2022/01/16 15:47:32;;;;;;;11.03;7.17;;;4.00;99.90;;;;;;4951079;28;20511;-75
2022/01/16 15:49:58;;;;;;;15.27;9.53;;;4.10;99.90;;;;;;4953156;28;20965;-73
2022/01/16 15:52:23;;;;;;;12.33;7.57;;;4.10;99.90;;;;;;4950526;29;20197;-74
2022/01/16 15:54:50;;;;;;;9.60;7.13;;;4.00;99.90;;;;;;4950182;28;20224;-75
2022/01/16 15:57:17;;;;;;;10.97;6.60;;;4.10;99.90;;;;;;4953484;28;20264;-75
2022/01/16 15:59:43;;;;;;;11.07;7.27;;;4.00;99.90;;;;;;4953388;28;20456;-75
2022/01/16 16:02:08;;;;;;;15.60;11.10;;;4.00;99.90;;;;;;4944796;28;20485;-75
2022/01/16 16:04:35;;;;;;;25.37;14.20;;;4.00;99.90;;;;;;4950178;28;20651;-74
2022/01/16 16:07:00;;;;;;;23.37;14.67;;;4.00;99.90;;;;;;4952059;29;20697;-74
2022/01/16 16:09:26;;;;;;;12.40;8.90;;;4.10;99.90;;;;;;4952937;28;20427;-75
2022/01/16 16:11:51;;;;;;;11.30;6.70;;;4.00;99.90;;;;;;4938670;28;20824;-74
2022/01/16 16:14:17;;;;;;;10.67;6.50;;;4.00;99.90;;;;;;4933994;28;20206;-74
2022/01/16 16:16:43;;;;;;;10.10;7.60;;;4.00;99.90;;;;;;4934021;29;20202;-75
2022/01/16 16:19:08;;;;;;;9.27;6.57;;;4.00;99.90;;;;;;4930960;28;20232;-75
2022/01/16 16:21:34;;;;;;;10.90;6.37;;;4.10;99.90;;;;;;4933439;29;20256;-75
2022/01/16 16:23:59;;;;;;;10.27;6.60;;;4.10;99.90;;;;;;4947884;28;20237;-75
2022/01/16 16:26:25;;;;;;;9.40;5.90;;;4.10;99.90;;;;;;4936783;28;20992;-76
2022/01/16 16:28:50;;;;;;;11.33;7.33;;;4.10;99.90;;;;;;4932279;28;20877;-75
2022/01/16 16:31:16;;;;;;;12.00;8.00;;;4.10;99.90;;;;;;4939428;29;20227;-74
2022/01/16 16:33:42;;;;;;;11.00;7.80;;;4.10;99.90;;;;;;4956730;28;20198;-74
2022/01/16 16:36:07;;;;;;;21.17;9.97;;;4.00;99.90;;;;;;4956409;28;20216;-74
2022/01/16 16:38:33;;;;;;;12.57;9.27;;;4.00;99.90;;;;;;4945561;28;20204;-74
2022/01/16 16:41:00;;;;;;;19.30;9.00;;;4.00;99.90;;;;;;4937285;28;20301;-74
2022/01/16 16:43:25;;;;;;;14.43;9.73;;;3.90;99.90;;;;;;4937605;29;20214;-74
2022/01/16 16:45:51;;;;;;;13.13;9.80;;;3.90;99.90;;;;;;4937485;28;20820;-74
2022/01/16 16:48:16;;;;;;;14.87;9.97;;;3.80;99.90;;;;;;4937497;29;20263;-75
2022/01/16 16:50:42;;;;;;;13.40;9.27;;;3.80;99.90;;;;;;4937385;28;20209;-73
2022/01/16 16:53:08;;;;;;;21.03;9.90;;;3.70;99.90;;;;;;4947154;29;20209;-73
2022/01/16 16:55:34;;;;;;;18.20;11.37;;;3.70;99.90;;;;;;4946108;28;20293;-74
2022/01/16 16:58:01;;;;;;;21.87;12.20;;;3.70;99.90;;;;;;4945963;29;20498;-73
2022/01/16 17:00:27;;;;;;;28.37;14.50;;;3.60;99.90;;;;;;4947342;28;20216;-71
2022/01/16 17:02:53;;;;;;;23.57;13.80;;;3.60;99.90;;;;;;4941258;29;20946;-74
2022/01/16 17:05:18;;;;;;;27.83;15.13;;;3.50;99.90;;;;;;4945155;28;20466;-74
2022/01/16 17:07:44;;;;;;;26.30;17.23;;;3.50;99.90;;;;;;4947450;29;20288;-74
2022/01/16 17:10:10;;;;;;;28.57;17.20;;;3.40;99.90;;;;;;4945358;28;20244;-77
2022/01/16 17:12:37;;;;;;;27.17;16.93;;;3.40;99.90;;;;;;4946123;29;20219;-74
2022/01/16 17:15:03;;;;;;;25.23;13.90;;;3.30;99.90;;;;;;4944307;28;20807;-75
2022/01/16 17:17:29;;;;;;;25.10;16.23;;;3.30;99.90;;;;;;4947037;29;20467;-74
2022/01/16 17:19:54;;;;;;;24.40;14.87;;;3.30;99.90;;;;;;4943348;28;20490;-75
2022/01/16 17:22:22;;;;;;;24.87;14.73;;;3.30;99.90;;;;;;4936776;29;20202;-74
2022/01/16 17:24:50;;;;;;;24.03;14.10;;;3.20;99.90;;;;;;4937022;28;20214;-74